Time;durP1;ratioP1;P1;durP2;ratioP2;P2;SDS_P1;SDS_P2;PMS_P1;PMS_P2;Temp;Humidity;BMP_temperature;BMP_pressure;BME280_temperature;BME280_humidity;BME280_pressure;Samples;Min_cycle;Max_cycle;Signal;HPM_P1;HPM_P2
2021/07/23 00:01:10;;;;;;;11.48;9.55;;;;;;;16.43;72.46;99974.19;5031219;28;20033;-72
2021/07/23 00:03:37;;;;;;;12.43;9.13;;;;;;;16.38;72.62;99974.50;5030285;28;20056;-71
2021/07/23 00:06:03;;;;;;;12.32;8.68;;;;;;;16.38;72.56;99976.31;5030715;28;20033;-71
2021/07/23 00:08:28;;;;;;;12.05;8.32;;;;;;;16.37;72.67;99970.16;5030157;28;20033;-71
2021/07/23 00:10:53;;;;;;;13.60;8.93;;;;;;;16.28;73.06;99970.78;5030779;28;20034;-72
2021/07/23 00:13:19;;;;;;;13.13;9.57;;;;;;;16.18;73.27;99975.06;5030034;28;20129;-73
2021/07/23 00:15:44;;;;;;;13.38;8.38;;;;;;;16.13;73.73;99967.38;5030585;28;20501;-71
2021/07/23 00:18:10;;;;;;;17.80;10.90;;;;;;;16.05;73.73;99959.94;5028960;28;20511;-70
2021/07/23 00:20:35;;;;;;;15.75;9.82;;;;;;;16.07;73.53;99965.13;5029836;28;20508;-71
2021/07/23 00:23:00;;;;;;;12.25;9.23;;;;;;;16.05;73.51;99965.25;5029846;28;20141;-71
2021/07/23 00:25:26;;;;;;;10.55;8.63;;;;;;;16.03;73.50;99961.00;5030079;28;20034;-71
2021/07/23 00:27:51;;;;;;;10.15;8.85;;;;;;;16.00;73.47;99962.06;5029557;28;20048;-71
2021/07/23 00:30:16;;;;;;;10.98;8.50;;;;;;;15.98;73.86;99960.47;5030108;28;20032;-71
2021/07/23 00:32:42;;;;;;;10.93;9.02;;;;;;;15.94;73.76;99962.47;5030253;28;20041;-71
2021/07/23 00:35:09;;;;;;;10.27;9.00;;;;;;;15.90;74.07;99955.69;5029686;28;20060;-71
2021/07/23 00:37:34;;;;;;;12.88;10.52;;;;;;;15.86;74.12;99956.84;5029216;28;20060;-71
2021/07/23 00:40:00;;;;;;;13.48;10.18;;;;;;;15.79;74.27;99952.91;5029698;28;20076;-72
2021/07/23 00:42:41;;;;;;;15.15;10.88;;;;;;;15.75;74.53;99954.06;5028653;28;20507;-71
2021/07/23 00:45:07;;;;;;;12.30;9.30;;;;;;;15.72;74.49;99951.63;5028764;28;20084;-72
2021/07/23 00:47:34;;;;;;;11.38;9.25;;;;;;;15.64;74.69;99944.97;5028926;28;20447;-72
2021/07/23 00:50:00;;;;;;;13.05;8.57;;;;;;;15.67;74.58;99949.22;5028223;28;20071;-72
2021/07/23 00:52:26;;;;;;;18.55;10.85;;;;;;;15.68;74.60;99946.47;5029553;28;20033;-72
2021/07/23 00:54:52;;;;;;;11.93;9.02;;;;;;;15.63;74.61;99945.09;5029371;28;20041;-72
2021/07/23 00:57:17;;;;;;;14.82;10.60;;;;;;;15.60;74.45;99950.59;5029085;28;20032;-72
2021/07/23 00:59:43;;;;;;;13.60;9.55;;;;;;;15.55;74.81;99942.09;5029567;28;20436;-72
2021/07/23 01:02:09;;;;;;;14.85;9.85;;;;;;;15.52;74.87;99945.81;5006281;28;20125;-72
2021/07/23 01:04:35;;;;;;;13.88;10.00;;;;;;;15.51;74.71;99940.59;5029023;28;20044;-72
2021/07/23 01:07:00;;;;;;;12.90;10.30;;;;;;;15.51;74.84;99941.47;5028998;28;20041;-72
2021/07/23 01:09:26;;;;;;;12.55;9.85;;;;;;;15.49;74.90;99934.53;5029238;28;20517;-72
2021/07/23 01:11:51;;;;;;;11.80;8.40;;;;;;;15.51;74.81;99943.25;5029779;28;20497;-71
2021/07/23 01:14:16;;;;;;;12.45;8.55;;;;;;;15.50;74.51;99941.53;5029452;28;20052;-71
2021/07/23 01:16:44;;;;;;;15.68;10.82;;;;;;;15.44;74.92;99942.81;5029376;28;20060;-71
2021/07/23 01:19:10;;;;;;;11.65;9.98;;;;;;;15.36;75.17;99940.69;5027749;28;20033;-70
2021/07/23 01:21:39;;;;;;;11.10;9.00;;;;;;;15.35;75.00;99933.66;5028154;28;20059;-71
2021/07/23 01:24:05;;;;;;;12.27;9.50;;;;;;;15.31;75.53;99932.16;5027721;28;20044;-72
2021/07/23 01:26:31;;;;;;;16.23;10.55;;;;;;;15.25;75.54;99936.06;5027373;28;20033;-71
2021/07/23 01:28:56;;;;;;;17.85;12.43;;;;;;;15.21;75.46;99931.03;5028983;28;20041;-72
2021/07/23 01:31:21;;;;;;;14.65;10.23;;;;;;;15.19;75.78;99931.16;5029517;28;20458;-71
2021/07/23 01:33:47;;;;;;;18.95;11.77;;;;;;;15.15;76.15;99931.47;5029165;28;20091;-72
2021/07/23 01:36:12;;;;;;;16.40;11.00;;;;;;;15.14;75.62;99933.28;5029263;28;20037;-72
2021/07/23 01:38:40;;;;;;;12.80;10.30;;;;;;;15.15;75.61;99931.47;5028733;28;20025;-72
2021/07/23 01:41:06;;;;;;;14.43;10.55;;;;;;;15.14;75.43;99933.28;5028999;28;20409;-73
2021/07/23 01:43:32;;;;;;;18.25;12.30;;;;;;;15.11;75.60;99938.81;5028964;28;20112;-72
2021/07/23 01:45:58;;;;;;;16.02;10.73;;;;;;;15.02;75.85;99926.13;5029033;28;20132;-73
2021/07/23 01:48:23;;;;;;;15.07;11.25;;;;;;;14.97;76.48;99933.53;5028264;28;20598;-72
2021/07/23 01:50:49;;;;;;;13.05;9.75;;;;;;;14.93;76.49;99929.38;5029500;28;20037;-72
2021/07/23 01:53:14;;;;;;;14.20;11.23;;;;;;;14.92;76.20;99927.66;5028615;28;20036;-72
2021/07/23 01:55:42;;;;;;;14.10;11.35;;;;;;;14.89;76.59;99917.22;5029090;28;20064;-72
2021/07/23 01:58:09;;;;;;;17.05;11.02;;;;;;;14.86;76.40;99928.06;5032337;28;20496;-72
2021/07/23 02:00:35;;;;;;;13.98;11.13;;;;;;;14.82;76.08;99928.25;5011989;28;20109;-72
2021/07/23 02:03:00;;;;;;;13.35;10.93;;;;;;;14.86;75.99;99926.25;5012595;28;20069;-71
2021/07/23 02:05:25;;;;;;;15.18;10.70;;;;;;;14.81;76.41;99926.53;5013071;28;20030;-71
2021/07/23 02:07:51;;;;;;;17.10;11.80;;;;;;;14.75;76.62;99926.09;5013008;28;20038;-71
2021/07/23 02:10:16;;;;;;;13.55;9.70;;;;;;;14.74;76.96;99927.91;5011067;28;20042;-71
2021/07/23 02:12:42;;;;;;;14.02;8.82;;;;;;;14.73;76.30;99926.19;5012855;28;20050;-71
2021/07/23 02:15:08;;;;;;;17.77;11.45;;;;;;;14.72;77.00;99926.31;5012777;28;20037;-71
2021/07/23 02:17:33;;;;;;;13.50;10.20;;;;;;;14.68;76.84;99925.63;5012293;28;20030;-71
2021/07/23 02:19:58;;;;;;;13.98;11.23;;;;;;;14.69;76.50;99922.03;5012570;28;20458;-71
2021/07/23 02:22:24;;;;;;;15.52;10.52;;;;;;;14.70;76.53;99914.94;5012573;28;20034;-71
2021/07/23 02:24:49;;;;;;;15.10;10.05;;;;;;;14.72;76.83;99918.34;5012784;28;20034;-71
2021/07/23 02:27:14;;;;;;;13.48;10.32;;;;;;;14.68;76.38;99915.03;5011996;28;20117;-71
2021/07/23 02:29:40;;;;;;;12.85;9.40;;;;;;;14.65;76.33;99915.22;5012432;28;20141;-72
2021/07/23 02:32:05;;;;;;;17.35;11.32;;;;;;;14.57;76.52;99915.72;5011963;28;20033;-72
2021/07/23 02:34:32;;;;;;;14.90;10.50;;;;;;;14.53;76.96;99910.66;5012086;28;20041;-72
2021/07/23 02:36:58;;;;;;;16.13;12.18;;;;;;;14.52;76.62;99914.25;5011515;28;20401;-71
2021/07/23 02:39:25;;;;;;;15.70;11.40;;;;;;;14.46;76.94;99904.91;5012052;28;20030;-71
2021/07/23 02:41:50;;;;;;;22.90;11.10;;;;;;;14.41;76.99;99904.34;5012557;28;20037;-72
2021/07/23 02:44:16;;;;;;;14.93;11.48;;;;;;;14.41;76.61;99906.13;5012011;28;20540;-72
2021/07/23 02:46:41;;;;;;;14.75;11.07;;;;;;;14.33;76.87;99896.88;5012192;28;20044;-72
2021/07/23 02:49:06;;;;;;;13.50;10.77;;;;;;;14.31;77.73;99903.22;5001002;28;20041;-72
2021/07/23 02:51:32;;;;;;;16.17;10.57;;;;;;;14.26;77.57;99900.00;5009750;28;20609;-72
2021/07/23 02:53:57;;;;;;;18.60;11.27;;;;;;;14.28;77.30;99898.97;5011923;28;20049;-72
2021/07/23 02:56:23;;;;;;;15.30;11.40;;;;;;;14.27;77.70;99899.03;5012252;28;20049;-72
2021/07/23 02:58:48;;;;;;;15.18;9.80;;;;;;;14.33;77.49;99894.22;5010847;28;20049;-73
2021/07/23 03:01:14;;;;;;;18.02;12.07;;;;;;;14.28;77.58;99891.00;5013018;28;20057;-71
2021/07/23 03:03:42;;;;;;;15.20;10.93;;;;;;;14.31;77.26;99892.59;5019526;28;20070;-72
2021/07/23 03:06:08;;;;;;;14.45;11.43;;;;;;;14.28;76.88;99898.97;5013781;28;20124;-72
2021/07/23 03:08:33;;;;;;;13.75;10.57;;;;;;;14.26;76.95;99887.59;5010747;28;20048;-72
2021/07/23 03:11:02;;;;;;;18.15;11.60;;;;;;;14.25;76.88;99895.63;5011277;28;20084;-71
2021/07/23 03:13:27;;;;;;;10.82;8.93;;;;;;;14.23;77.17;99889.59;5011155;28;20417;-72
2021/07/23 03:15:53;;;;;;;21.02;12.50;;;;;;;14.15;77.17;99888.28;5011521;28;20038;-72
2021/07/23 03:18:18;;;;;;;15.10;12.05;;;;;;;14.06;77.42;99888.00;5011522;28;20043;-72
2021/07/23 03:20:44;;;;;;;13.00;9.98;;;;;;;14.07;77.58;99881.72;5011672;28;20037;-72
2021/07/23 03:23:09;;;;;;;14.90;10.73;;;;;;;14.08;77.36;99886.09;5010556;28;20042;-72
2021/07/23 03:25:36;;;;;;;17.55;10.70;;;;;;;14.05;77.80;99879.16;5010384;28;20560;-71
2021/07/23 03:28:01;;;;;;;15.65;11.45;;;;;;;14.02;77.74;99879.34;5011110;28;20125;-72
2021/07/23 03:30:27;;;;;;;17.10;12.45;;;;;;;14.03;77.94;99882.84;5000339;28;20161;-72
2021/07/23 03:32:53;;;;;;;15.82;11.43;;;;;;;14.01;77.75;99877.66;5010618;28;20045;-71
2021/07/23 03:35:22;;;;;;;14.98;11.38;;;;;;;13.96;77.44;99882.41;5009704;28;20113;-72
2021/07/23 03:37:47;;;;;;;13.90;10.95;;;;;;;13.93;77.84;99875.50;5010714;28;20374;-73
2021/07/23 03:40:13;;;;;;;14.07;10.77;;;;;;;13.91;78.10;99869.44;5010933;28;20117;-71
2021/07/23 03:42:38;;;;;;;15.10;10.57;;;;;;;13.95;77.38;99873.59;5002289;28;20038;-72
2021/07/23 03:45:04;;;;;;;18.38;11.20;;;;;;;13.93;77.48;99871.97;5009387;28;20038;-72
2021/07/23 03:47:29;;;;;;;17.13;12.52;;;;;;;13.94;77.61;99874.53;5010559;28;20049;-71
2021/07/23 03:49:55;;;;;;;13.45;9.60;;;;;;;13.93;77.33;99875.50;5010542;28;20037;-71
2021/07/23 03:52:20;;;;;;;21.17;10.88;;;;;;;13.92;77.38;99871.13;5011280;28;20080;-72
2021/07/23 03:54:46;;;;;;;14.32;9.35;;;;;;;13.93;77.34;99869.31;5009775;28;20037;-73
2021/07/23 03:57:11;;;;;;;15.80;12.10;;;;;;;13.91;77.21;99866.78;5010690;28;20044;-72
2021/07/23 03:59:36;;;;;;;14.07;11.75;;;;;;;13.86;77.71;99868.03;5011109;28;20026;-73
2021/07/23 04:02:02;;;;;;;17.98;12.15;;;;;;;13.80;77.91;99871.88;5011412;28;20046;-73
2021/07/23 04:04:28;;;;;;;17.38;12.25;;;;;;;13.80;78.12;99866.56;5011109;28;20034;-73
2021/07/23 04:06:59;;;;;;;17.30;11.15;;;;;;;13.81;77.49;99870.06;5011356;28;20049;-73
2021/07/23 04:09:24;;;;;;;18.55;11.48;;;;;;;13.85;77.79;99866.31;4996432;28;20038;-73
2021/07/23 04:11:51;;;;;;;14.50;10.48;;;;;;;13.85;77.24;99868.94;4991708;28;20069;-72
2021/07/23 04:14:17;;;;;;;16.65;12.38;;;;;;;13.87;77.34;99867.06;5030010;28;20029;-73
2021/07/23 04:16:42;;;;;;;14.60;12.20;;;;;;;13.81;77.86;99859.47;5028880;28;20481;-72
2021/07/23 04:19:08;;;;;;;15.35;11.15;;;;;;;13.82;77.65;99859.38;5030384;28;20061;-73
2021/07/23 04:21:33;;;;;;;16.23;11.75;;;;;;;13.84;77.94;99854.84;5030426;28;20120;-73
2021/07/23 04:23:59;;;;;;;19.63;13.27;;;;;;;13.80;77.38;99861.28;5030403;28;20037;-73
2021/07/23 04:26:24;;;;;;;15.05;10.93;;;;;;;13.77;77.57;99861.47;5029846;28;20037;-72
2021/07/23 04:28:49;;;;;;;15.32;11.85;;;;;;;13.75;77.83;99852.75;5030266;28;20064;-72
2021/07/23 04:31:15;;;;;;;12.85;10.27;;;;;;;13.80;77.33;99855.97;5029695;28;20033;-72
2021/07/23 04:33:40;;;;;;;19.25;13.43;;;;;;;13.79;77.39;99858.75;5029568;28;20448;-71
2021/07/23 04:36:05;;;;;;;14.35;11.43;;;;;;;13.80;77.37;99863.94;5029916;28;20527;-72
2021/07/23 04:38:31;;;;;;;16.63;11.02;;;;;;;13.85;77.55;99864.50;5029297;28;20037;-72
2021/07/23 04:40:56;;;;;;;14.35;10.88;;;;;;;13.89;77.62;99862.53;5029677;28;20033;-72
2021/07/23 04:43:21;;;;;;;14.00;10.48;;;;;;;13.92;77.27;99860.53;5028511;28;20037;-72
2021/07/23 04:45:47;;;;;;;14.48;11.60;;;;;;;13.94;77.21;99863.09;5029592;28;20121;-72
2021/07/23 04:48:13;;;;;;;21.05;12.10;;;;;;;13.94;77.86;99868.41;5029208;28;20132;-73
2021/07/23 04:50:39;;;;;;;16.80;12.82;;;;;;;13.95;77.12;99857.72;5029833;28;20059;-73
2021/07/23 04:53:04;;;;;;;15.32;12.25;;;;;;;13.95;77.45;99867.44;5012024;28;20117;-73
2021/07/23 04:55:29;;;;;;;17.27;11.25;;;;;;;13.99;77.49;99866.31;5011752;28;20040;-73
2021/07/23 04:57:55;;;;;;;19.40;12.95;;;;;;;14.05;76.99;99865.06;5029524;28;20037;-72
2021/07/23 05:00:20;;;;;;;13.57;11.50;;;;;;;14.08;77.32;99870.19;5029961;28;20116;-72
2021/07/23 05:02:53;;;;;;;15.38;10.88;;;;;;;14.17;77.33;99865.13;5029699;28;20037;-72
2021/07/23 05:05:21;;;;;;;14.90;11.23;;;;;;;14.26;77.01;99861.06;5029831;28;20037;-73
2021/07/23 05:07:46;;;;;;;13.35;10.93;;;;;;;14.36;76.71;99869.28;5029919;28;20033;-73
2021/07/23 05:10:12;;;;;;;14.32;11.10;;;;;;;14.47;76.89;99864.16;5030920;28;20041;-72
2021/07/23 05:12:38;;;;;;;15.48;12.63;;;;;;;14.60;76.08;99865.09;5030582;28;20029;-73
2021/07/23 05:15:06;;;;;;;14.45;10.40;;;;;;;14.72;76.34;99866.13;5030182;28;20037;-73
2021/07/23 05:17:32;;;;;;;13.88;11.30;;;;;;;14.85;75.98;99870.63;5031035;28;20515;-73
2021/07/23 05:19:57;;;;;;;14.10;11.93;;;;;;;14.96;75.40;99866.31;5029698;28;20113;-73
2021/07/23 05:22:23;;;;;;;18.38;11.63;;;;;;;15.03;75.21;99867.59;5028196;28;20029;-74
2021/07/23 05:24:48;;;;;;;14.50;11.73;;;;;;;15.12;75.17;99868.78;5029390;28;20033;-72
2021/07/23 05:27:14;;;;;;;17.35;11.93;;;;;;;15.24;74.77;99867.13;5028533;28;20072;-73
2021/07/23 05:29:41;;;;;;;15.10;12.75;;;;;;;15.37;74.35;99860.00;5029020;28;20503;-73
2021/07/23 05:32:07;;;;;;;17.98;12.43;;;;;;;15.48;74.22;99866.41;5014666;28;20493;-72
2021/07/23 05:34:32;;;;;;;24.33;13.45;;;;;;;15.57;73.75;99863.13;5034041;28;20108;-71
2021/07/23 05:36:58;;;;;;;20.08;12.60;;;;;;;15.63;73.14;99863.56;5032830;28;20036;-72
2021/07/23 05:39:23;;;;;;;15.75;13.82;;;;;;;15.72;72.98;99861.25;5032142;28;20049;-72
2021/07/23 05:41:49;;;;;;;18.55;13.02;;;;;;;15.80;72.68;99861.53;5033361;28;20133;-72
2021/07/23 05:44:14;;;;;;;18.40;13.82;;;;;;;15.90;72.31;99862.63;5032732;28;20128;-72
2021/07/23 05:46:39;;;;;;;19.02;11.75;;;;;;;15.97;71.62;99855.06;5031647;28;20027;-72
2021/07/23 05:49:06;;;;;;;17.20;11.23;;;;;;;16.06;70.49;99855.25;5032679;28;20047;-72
2021/07/23 05:51:31;;;;;;;20.15;12.60;;;;;;;16.13;70.63;99853.00;5032958;28;20037;-72
2021/07/23 05:53:57;;;;;;;14.82;11.38;;;;;;;16.20;69.50;99859.59;5033341;28;20032;-72
2021/07/23 05:56:23;;;;;;;20.92;11.75;;;;;;;16.32;68.95;99865.88;5033176;28;20113;-72
2021/07/23 05:58:48;;;;;;;26.33;12.38;;;;;;;16.35;68.10;99860.31;5032730;28;20120;-72
2021/07/23 06:01:13;;;;;;;18.15;12.82;;;;;;;16.43;67.94;99857.94;5033006;28;20401;-72
2021/07/23 06:03:40;;;;;;;17.10;10.57;;;;;;;16.55;67.75;99858.88;5032711;28;20485;-72
2021/07/23 06:06:05;;;;;;;25.50;10.43;;;;;;;16.62;67.16;99860.13;5032741;28;20111;-72
2021/07/23 06:08:31;;;;;;;18.95;11.80;;;;;;;16.68;67.08;99857.00;5032478;28;20057;-73
2021/07/23 06:10:56;;;;;;;18.83;11.63;;;;;;;16.77;66.18;99843.97;5032435;28;20706;-73
2021/07/23 06:13:21;;;;;;;16.63;11.77;;;;;;;16.82;66.12;99850.69;5032903;28;20029;-73
2021/07/23 06:15:47;;;;;;;18.23;11.98;;;;;;;16.86;65.92;99851.31;5031236;28;20044;-72
2021/07/23 06:18:12;;;;;;;21.67;11.40;;;;;;;16.84;65.77;99853.25;5032366;28;20559;-72
2021/07/23 06:20:38;;;;;;;19.70;12.40;;;;;;;16.89;65.94;99846.59;5032204;28;20397;-72
2021/07/23 06:23:03;;;;;;;19.92;12.52;;;;;;;16.98;65.80;99850.38;5032098;28;20354;-71
2021/07/23 06:25:28;;;;;;;18.58;12.85;;;;;;;17.10;65.45;99848.63;5032079;28;20624;-72
2021/07/23 06:27:54;;;;;;;16.70;11.75;;;;;;;17.25;64.64;99851.94;5032646;28;20045;-72
2021/07/23 06:30:19;;;;;;;16.83;11.98;;;;;;;17.34;63.99;99848.59;5032218;28;20038;-72
2021/07/23 06:32:44;;;;;;;18.92;11.82;;;;;;;17.45;63.73;99853.94;5031799;28;20397;-72
2021/07/23 06:35:10;;;;;;;13.10;11.18;;;;;;;17.46;64.06;99846.81;5031879;28;20067;-72
2021/07/23 06:37:36;;;;;;;16.52;11.60;;;;;;;17.56;64.07;99847.78;5031545;28;20064;-72
2021/07/23 06:40:01;;;;;;;19.40;12.32;;;;;;;17.67;63.60;99845.16;5031741;28;20480;-72
2021/07/23 06:42:27;;;;;;;18.35;11.10;;;;;;;17.73;63.02;99843.81;5012548;28;20025;-72
2021/07/23 06:44:52;;;;;;;20.17;11.15;;;;;;;17.77;63.00;99851.44;5032112;28;20060;-72
2021/07/23 06:47:18;;;;;;;17.45;9.75;;;;;;;17.89;62.38;99848.81;5031554;28;20076;-72
2021/07/23 06:49:44;;;;;;;15.25;11.88;;;;;;;17.95;62.52;99846.50;5031876;28;20022;-73
2021/07/23 06:52:09;;;;;;;20.85;12.35;;;;;;;17.99;62.07;99850.66;5030582;28;20528;-73
2021/07/23 06:54:35;;;;;;;21.20;12.18;;;;;;;17.96;62.04;99850.88;5032251;28;20067;-71
2021/07/23 06:57:04;;;;;;;22.70;12.55;;;;;;;18.01;61.64;99847.84;5031793;28;20417;-72
2021/07/23 06:59:30;;;;;;;14.50;10.30;;;;;;;18.15;61.53;99860.94;5031690;28;20124;-72
2021/07/23 07:01:56;;;;;;;19.13;11.90;;;;;;;18.25;61.38;99853.06;5032080;28;20033;-73
2021/07/23 07:04:21;;;;;;;16.27;10.57;;;;;;;18.33;60.82;99855.09;5032129;28;20041;-72
2021/07/23 07:06:46;;;;;;;18.88;12.13;;;;;;;18.37;60.91;99860.06;5029897;28;20431;-72
2021/07/23 07:09:12;;;;;;;16.27;9.98;;;;;;;18.44;61.26;99860.44;5030723;28;20033;-71
2021/07/23 07:11:38;;;;;;;15.00;10.98;;;;;;;18.60;60.45;99863.53;5028751;28;20473;-72
2021/07/23 07:14:05;;;;;;;18.13;11.38;;;;;;;18.70;60.45;99854.78;5009250;28;20122;-74
2021/07/23 07:16:30;;;;;;;13.38;11.50;;;;;;;18.87;60.21;99857.78;5011256;28;20465;-72
2021/07/23 07:18:55;;;;;;;14.98;10.23;;;;;;;19.09;59.58;99858.66;5009968;28;20042;-72
2021/07/23 07:21:21;;;;;;;21.30;10.50;;;;;;;19.28;59.03;99855.31;5011964;28;20030;-71
2021/07/23 07:23:46;;;;;;;13.68;9.73;;;;;;;19.51;58.10;99856.88;5011465;28;20033;-72
2021/07/23 07:26:12;;;;;;;17.40;11.02;;;;;;;19.73;57.50;99857.72;5011413;28;20022;-73
2021/07/23 07:28:38;;;;;;;14.35;10.40;;;;;;;19.89;57.33;99860.78;5011248;28;20034;-71
2021/07/23 07:31:03;;;;;;;23.15;11.90;;;;;;;19.99;56.41;99857.31;5011289;28;20033;-72
2021/07/23 07:33:29;;;;;;;13.68;9.52;;;;;;;20.29;56.54;99851.91;5011223;28;20092;-73
2021/07/23 07:35:55;;;;;;;19.10;10.85;;;;;;;20.86;54.01;99856.72;5011789;28;20058;-71
2021/07/23 07:38:21;;;;;;;15.45;10.27;;;;;;;21.08;52.57;99852.91;5010867;28;20068;-72
2021/07/23 07:40:46;;;;;;;17.90;12.15;;;;;;;20.96;52.97;99855.72;5009944;28;20100;-72
2021/07/23 07:43:12;;;;;;;19.48;9.48;;;;;;;20.94;52.34;99855.00;5009863;28;20050;-72
2021/07/23 07:45:37;;;;;;;12.38;10.55;;;;;;;21.00;52.82;99850.94;5011501;28;20035;-72
2021/07/23 07:48:03;;;;;;;17.27;11.82;;;;;;;20.92;51.89;99869.53;5010748;28;20406;-72
2021/07/23 07:50:30;;;;;;;11.50;9.55;;;;;;;20.96;51.48;99857.56;5010773;28;20030;-72
2021/07/23 07:52:55;;;;;;;13.43;8.50;;;;;;;21.09;50.81;99858.13;5011620;28;20061;-73
2021/07/23 07:55:21;;;;;;;10.35;7.88;;;;;;;21.29;50.39;99856.31;5011139;28;20034;-73
2021/07/23 07:57:46;;;;;;;10.82;7.70;;;;;;;21.54;50.74;99860.25;4994940;28;20052;-72
2021/07/23 08:00:12;;;;;;;16.95;7.88;;;;;;;21.63;49.87;99854.03;5011128;28;20034;-72
2021/07/23 08:02:37;;;;;;;12.10;8.88;;;;;;;21.70;49.38;99858.78;5010647;28;20390;-72
2021/07/23 08:05:03;;;;;;;9.88;8.13;;;;;;;21.83;48.88;99856.63;5009474;28;20459;-71
2021/07/23 08:07:31;;;;;;;10.85;9.75;;;;;;;22.00;49.49;99844.28;5007982;28;20052;-71
2021/07/23 08:09:59;;;;;;;13.32;9.60;;;;;;;22.16;48.35;99844.50;5010258;28;20037;-72
2021/07/23 08:12:24;;;;;;;13.30;9.15;;;;;;;22.63;47.74;99844.41;5010614;28;20030;-71
2021/07/23 08:14:49;;;;;;;8.95;7.90;;;;;;;23.08;47.03;99835.44;5010725;28;20556;-72
2021/07/23 08:17:15;;;;;;;18.75;9.95;;;;;;;23.30;46.24;99830.59;5009842;28;20386;-72
2021/07/23 08:19:40;;;;;;;12.63;10.65;;;;;;;22.88;47.02;99826.66;5010155;28;20116;-72
2021/07/23 08:22:07;;;;;;;19.23;8.73;;;;;;;23.08;47.09;99819.31;5010360;28;20037;-74
2021/07/23 08:24:33;;;;;;;10.30;8.20;;;;;;;23.19;46.63;99817.41;5024248;28;20031;-73
2021/07/23 08:26:58;;;;;;;21.27;9.95;;;;;;;23.30;46.44;99819.81;5029858;28;20044;-73
2021/07/23 08:29:24;;;;;;;18.77;9.90;;;;;;;23.26;46.59;99808.53;5030244;28;20037;-72
2021/07/23 08:31:49;;;;;;;20.58;10.43;;;;;;;22.98;46.43;99805.09;5027874;28;20055;-72
2021/07/23 08:34:15;;;;;;;19.70;8.90;;;;;;;22.72;47.50;99803.19;5028969;28;20577;-72
2021/07/23 08:36:40;;;;;;;19.10;8.88;;;;;;;22.61;47.95;99798.00;5029329;28;20188;-73
2021/07/23 08:39:06;;;;;;;11.50;9.02;;;;;;;22.64;47.24;99796.88;5029810;28;20056;-73
2021/07/23 08:41:31;;;;;;;14.35;9.07;;;;;;;22.55;47.49;99792.44;5029223;28;20040;-71
2021/07/23 08:43:56;;;;;;;10.52;8.45;;;;;;;22.45;47.62;99792.50;5030166;28;20036;-74
2021/07/23 08:46:22;;;;;;;11.63;7.82;;;;;;;22.46;47.22;99786.94;5029257;28;20064;-72
2021/07/23 08:48:47;;;;;;;16.15;8.70;;;;;;;22.35;47.10;99789.00;5029551;28;20068;-71
2021/07/23 08:51:19;;;;;;;11.23;8.13;;;;;;;22.26;47.79;99788.09;5029634;28;20038;-74
2021/07/23 08:53:45;;;;;;;15.63;8.15;;;;;;;22.29;46.78;99793.13;5029993;28;20038;-73
2021/07/23 08:56:10;;;;;;;12.60;7.05;;;;;;;22.58;46.66;99789.44;5029387;28;20493;-73
2021/07/23 08:58:37;;;;;;;11.55;8.27;;;;;;;22.84;45.94;99792.16;5027365;28;20038;-73
2021/07/23 09:01:02;;;;;;;13.77;10.32;;;;;;;22.77;46.02;99781.22;5028076;28;20032;-72
2021/07/23 09:03:28;;;;;;;11.70;8.80;;;;;;;22.94;45.82;99780.34;5031299;28;20034;-72
2021/07/23 09:05:54;;;;;;;12.20;8.50;;;;;;;23.27;44.97;99790.56;5029680;28;20040;-72
2021/07/23 09:08:21;;;;;;;10.52;7.63;;;;;;;23.56;42.99;99787.53;5030620;28;20088;-73
2021/07/23 09:11:00;;;;;;;14.70;8.23;;;;;;;24.01;42.54;99794.53;5030700;28;20038;-72
2021/07/23 09:13:26;;;;;;;14.50;8.00;;;;;;;24.48;41.53;99788.63;5030148;28;20052;-73
2021/07/23 09:15:52;;;;;;;10.43;9.18;;;;;;;24.86;40.51;99789.03;5029533;28;20517;-73
2021/07/23 09:18:29;;;;;;;11.30;8.75;;;;;;;25.03;40.29;99782.63;5047841;28;20060;-72
2021/07/23 09:20:54;;;;;;;14.35;7.45;;;;;;;25.58;39.92;99783.78;5029552;28;20042;-72
2021/07/23 09:23:31;;;;;;;10.48;7.78;;;;;;;26.46;38.59;99788.16;5029345;28;20036;-72
2021/07/23 09:26:13;;;;;;;9.68;7.30;;;;;;;27.10;36.89;99782.47;5028300;28;20037;-73
2021/07/23 09:28:46;;;;;;;11.82;7.22;;;;;;;27.80;35.73;99777.72;5028711;28;20037;-73
2021/07/23 09:31:22;;;;;;;12.13;8.23;;;;;;;27.82;36.18;99773.00;5028949;28;20045;-71
2021/07/23 09:33:52;;;;;;;9.45;7.93;;;;;;;28.17;34.69;99770.50;5028805;28;20037;-72
2021/07/23 09:36:18;;;;;;;9.50;7.63;;;;;;;28.70;33.74;99765.72;5029261;28;20112;-73
2021/07/23 09:38:46;;;;;;;11.15;9.40;;;;;;;28.83;33.25;99773.97;5029217;28;20114;-72
2021/07/23 09:41:13;;;;;;;10.75;8.70;;;;;;;28.69;33.52;99761.28;5029415;28;20049;-72
2021/07/23 09:43:45;;;;;;;14.55;9.10;;;;;;;28.57;33.40;99758.25;5029378;28;20025;-72
2021/07/23 09:46:18;;;;;;;23.48;9.15;;;;;;;29.16;33.14;99754.41;5029506;28;20047;-72
2021/07/23 09:48:44;;;;;;;11.07;8.07;;;;;;;29.66;31.66;99749.78;5027827;28;20042;-73
2021/07/23 09:51:10;;;;;;;13.43;9.02;;;;;;;29.39;32.19;99748.75;5028959;28;20045;-71
2021/07/23 09:53:36;;;;;;;12.10;7.90;;;;;;;29.45;32.35;99739.78;5028686;28;20121;-72
2021/07/23 09:56:09;;;;;;;10.52;7.97;;;;;;;29.61;31.90;99738.66;5028512;28;20103;-72
2021/07/23 09:58:37;;;;;;;12.75;8.45;;;;;;;29.80;31.39;99730.81;5028422;28;20409;-72
2021/07/23 10:01:08;;;;;;;12.00;7.60;;;;;;;29.92;31.71;99742.78;5028870;28;20472;-72
2021/07/23 10:03:38;;;;;;;11.98;9.00;;;;;;;30.04;31.22;99730.28;5027719;28;20049;-73
2021/07/23 10:06:06;;;;;;;11.15;9.48;;;;;;;29.96;31.26;99719.59;5029178;28;20053;-73
2021/07/23 10:08:38;;;;;;;16.92;11.65;;;;;;;29.36;32.29;99723.84;5028426;28;20528;-73
2021/07/23 10:11:07;;;;;;;16.10;11.27;;;;;;;29.29;32.64;99721.13;5029473;28;20056;-72
2021/07/23 10:13:37;;;;;;;11.75;10.57;;;;;;;29.47;32.17;99721.44;5028913;28;20045;-72
2021/07/23 10:16:05;;;;;;;13.02;10.35;;;;;;;29.90;31.82;99721.22;5029339;28;20037;-72
2021/07/23 10:18:33;;;;;;;10.38;9.38;;;;;;;29.83;31.91;99701.38;5032000;28;20033;-71
2021/07/23 10:20:58;;;;;;;19.13;11.00;;;;;;;29.82;31.68;99704.28;5026164;28;20041;-72
2021/07/23 10:23:25;;;;;;;9.75;8.75;;;;;;;29.89;31.36;99699.72;5014014;28;20037;-73
2021/07/23 10:25:53;;;;;;;12.82;9.15;;;;;;;30.35;31.02;99699.03;5014032;28;20030;-72
2021/07/23 10:28:54;;;;;;;14.00;10.45;;;;;;;30.31;30.91;99698.59;5012055;28;20113;-72
2021/07/23 10:31:24;;;;;;;12.00;9.50;;;;;;;29.96;31.80;99697.84;5001076;28;20038;-72
2021/07/23 10:33:52;;;;;;;10.32;9.27;;;;;;;30.35;31.39;99690.88;5012932;28;20049;-72
2021/07/23 10:36:26;;;;;;;11.05;9.02;;;;;;;30.39;31.19;99682.06;5011863;28;20040;-73
2021/07/23 10:39:04;;;;;;;14.27;10.13;;;;;;;30.16;31.51;99687.03;5012182;28;20033;-72
2021/07/23 10:41:30;;;;;;;14.00;10.60;;;;;;;29.62;32.58;99687.84;5012063;28;20030;-72
2021/07/23 10:43:55;;;;;;;12.32;8.95;;;;;;;30.17;31.64;99678.66;5011276;28;20072;-73
2021/07/23 10:46:44;;;;;;;11.93;10.23;;;;;;;30.46;31.15;99668.50;5011094;28;20042;-73
2021/07/23 10:49:10;;;;;;;12.32;9.52;;;;;;;30.66;30.67;99673.94;5012173;28;20049;-71
2021/07/23 10:51:52;;;;;;;18.95;10.38;;;;;;;30.94;30.42;99665.59;5010732;28;20065;-72
2021/07/23 10:54:19;;;;;;;14.15;9.70;;;;;;;30.74;30.46;99664.72;5012693;28;20030;-73
2021/07/23 10:57:03;;;;;;;13.73;9.50;;;;;;;30.79;30.90;99660.34;5012405;28;20030;-73
2021/07/23 10:59:40;;;;;;;13.65;10.95;;;;;;;30.99;30.18;99657.63;5012490;28;20034;-71
2021/07/23 11:02:15;;;;;;;13.30;11.13;;;;;;;30.30;31.58;99655.28;5011648;28;20030;-71
2021/07/23 11:04:41;;;;;;;;;;;;;;;29.08;33.16;99648.69;5012321;28;20026;-72
2021/07/23 11:07:07;;;;;;;12.75;9.18;;;;;;;28.89;34.01;99656.47;5011529;28;20063;-73
2021/07/23 11:09:36;;;;;;;12.52;9.30;;;;;;;28.81;34.11;99642.22;5012007;28;20037;-72
2021/07/23 11:12:25;;;;;;;20.23;11.82;;;;;;;28.10;35.24;99636.78;5011644;28;20116;-72
2021/07/23 11:15:00;;;;;;;13.35;9.30;;;;;;;27.74;36.28;99645.72;4995849;28;20030;-71
2021/07/23 11:17:30;;;;;;;15.50;10.48;;;;;;;27.43;37.18;99645.97;5011924;28;20088;-72
2021/07/23 11:20:01;;;;;;;15.52;11.07;;;;;;;27.05;37.59;99640.59;5031646;28;20409;-72